sensor_id;sensor_type;location;lat;lon;timestamp;temperature;humidity
35613;DHT22;22054;51.646;7.078;2022-12-07T00:01:40;5.60;99.90
35613;DHT22;22054;51.646;7.078;2022-12-07T00:04:09;5.50;99.90
35613;DHT22;22054;51.646;7.078;2022-12-07T00:06:42;5.60;99.90
35613;DHT22;22054;51.646;7.078;2022-12-07T00:09:15;5.60;99.90
35613;DHT22;22054;51.646;7.078;2022-12-07T00:11:49;5.70;99.90
35613;DHT22;22054;51.646;7.078;2022-12-07T00:14:16;5.60;99.90
35613;DHT22;22054;51.646;7.078;2022-12-07T00:16:44;5.60;99.90
35613;DHT22;22054;51.646;7.078;2022-12-07T00:19:13;5.60;99.90
35613;DHT22;22054;51.646;7.078;2022-12-07T00:21:39;5.60;99.90
35613;DHT22;22054;51.646;7.078;2022-12-07T00:24:05;5.60;99.90
35613;DHT22;22054;51.646;7.078;2022-12-07T00:26:41;5.60;99.90
35613;DHT22;22054;51.646;7.078;2022-12-07T00:29:14;5.60;99.90
35613;DHT22;22054;51.646;7.078;2022-12-07T00:31:43;5.60;99.90
35613;DHT22;22054;51.646;7.078;2022-12-07T00:34:17;5.60;99.90
35613;DHT22;22054;51.646;7.078;2022-12-07T00:36:44;5.50;99.90
35613;DHT22;22054;51.646;7.078;2022-12-07T00:39:10;5.50;99.90
35613;DHT22;22054;51.646;7.078;2022-12-07T00:41:35;5.50;99.90
35613;DHT22;22054;51.646;7.078;2022-12-07T00:44:01;5.50;99.90
35613;DHT22;22054;51.646;7.078;2022-12-07T00:46:27;5.50;99.90
35613;DHT22;22054;51.646;7.078;2022-12-07T00:48:56;5.50;99.90
35613;DHT22;22054;51.646;7.078;2022-12-07T00:51:23;5.60;99.90
35613;DHT22;22054;51.646;7.078;2022-12-07T00:53:50;5.50;99.90
35613;DHT22;22054;51.646;7.078;2022-12-07T00:56:24;5.60;99.90
35613;DHT22;22054;51.646;7.078;2022-12-07T00:59:02;5.60;99.90
35613;DHT22;22054;51.646;7.078;2022-12-07T01:01:30;5.60;99.90
35613;DHT22;22054;51.646;7.078;2022-12-07T01:04:00;5.60;99.90
35613;DHT22;22054;51.646;7.078;2022-12-07T01:06:27;5.60;99.90
35613;DHT22;22054;51.646;7.078;2022-12-07T01:08:54;5.60;99.90
35613;DHT22;22054;51.646;7.078;2022-12-07T01:11:26;5.50;99.90
35613;DHT22;22054;51.646;7.078;2022-12-07T01:13:56;5.60;99.90
35613;DHT22;22054;51.646;7.078;2022-12-07T01:16:25;5.60;99.90
35613;DHT22;22054;51.646;7.078;2022-12-07T01:18:54;5.60;99.90
35613;DHT22;22054;51.646;7.078;2022-12-07T01:21:23;5.60;99.90
35613;DHT22;22054;51.646;7.078;2022-12-07T01:24:04;5.60;99.90
35613;DHT22;22054;51.646;7.078;2022-12-07T01:26:34;5.60;99.90
35613;DHT22;22054;51.646;7.078;2022-12-07T01:28:59;5.60;99.90
35613;DHT22;22054;51.646;7.078;2022-12-07T01:31:26;5.50;99.90
35613;DHT22;22054;51.646;7.078;2022-12-07T01:33:55;5.50;99.90
35613;DHT22;22054;51.646;7.078;2022-12-07T01:36:30;5.50;99.90
35613;DHT22;22054;51.646;7.078;2022-12-07T01:39:03;5.60;99.90
35613;DHT22;22054;51.646;7.078;2022-12-07T01:41:32;5.50;99.90
35613;DHT22;22054;51.646;7.078;2022-12-07T01:46:49;5.60;99.90
35613;DHT22;22054;51.646;7.078;2022-12-07T01:52:25;5.50;99.90
35613;DHT22;22054;51.646;7.078;2022-12-07T01:54:57;5.60;99.90
35613;DHT22;22054;51.646;7.078;2022-12-07T01:57:25;5.50;99.90
35613;DHT22;22054;51.646;7.078;2022-12-07T01:59:53;5.50;99.90
35613;DHT22;22054;51.646;7.078;2022-12-07T02:02:24;5.50;99.90
35613;DHT22;22054;51.646;7.078;2022-12-07T02:04:55;5.50;99.90
35613;DHT22;22054;51.646;7.078;2022-12-07T02:07:23;5.50;99.90
35613;DHT22;22054;51.646;7.078;2022-12-07T02:09:49;5.50;99.90
35613;DHT22;22054;51.646;7.078;2022-12-07T02:12:17;5.40;99.90
35613;DHT22;22054;51.646;7.078;2022-12-07T02:14:43;5.40;99.90
35613;DHT22;22054;51.646;7.078;2022-12-07T02:20:23;5.30;99.90
35613;DHT22;22054;51.646;7.078;2022-12-07T02:23:39;5.30;99.90
35613;DHT22;22054;51.646;7.078;2022-12-07T02:29:16;4.90;99.90
35613;DHT22;22054;51.646;7.078;2022-12-07T02:32:08;4.80;99.90
35613;DHT22;22054;51.646;7.078;2022-12-07T02:34:51;4.70;99.90
35613;DHT22;22054;51.646;7.078;2022-12-07T02:37:48;4.70;99.90
35613;DHT22;22054;51.646;7.078;2022-12-07T02:40:38;4.70;99.90
35613;DHT22;22054;51.646;7.078;2022-12-07T02:43:19;4.50;99.90
35613;DHT22;22054;51.646;7.078;2022-12-07T02:46:04;4.50;99.90
35613;DHT22;22054;51.646;7.078;2022-12-07T02:48:34;4.40;99.90
35613;DHT22;22054;51.646;7.078;2022-12-07T02:51:00;4.30;99.90
35613;DHT22;22054;51.646;7.078;2022-12-07T02:53:30;4.30;99.90
35613;DHT22;22054;51.646;7.078;2022-12-07T03:13:58;4.00;99.90
35613;DHT22;22054;51.646;7.078;2022-12-07T03:16:35;4.00;99.90
35613;DHT22;22054;51.646;7.078;2022-12-07T03:19:13;4.00;99.90
35613;DHT22;22054;51.646;7.078;2022-12-07T03:21:44;4.00;99.90
35613;DHT22;22054;51.646;7.078;2022-12-07T03:24:16;4.00;99.90
35613;DHT22;22054;51.646;7.078;2022-12-07T03:26:49;3.80;99.90
35613;DHT22;22054;51.646;7.078;2022-12-07T03:29:24;3.90;99.90
35613;DHT22;22054;51.646;7.078;2022-12-07T03:32:04;3.90;99.90
35613;DHT22;22054;51.646;7.078;2022-12-07T03:34:36;3.90;99.90
35613;DHT22;22054;51.646;7.078;2022-12-07T03:37:11;3.90;99.90
35613;DHT22;22054;51.646;7.078;2022-12-07T03:42:50;3.80;99.90
35613;DHT22;22054;51.646;7.078;2022-12-07T03:45:17;3.80;99.90
35613;DHT22;22054;51.646;7.078;2022-12-07T03:48:02;3.80;99.90
35613;DHT22;22054;51.646;7.078;2022-12-07T03:50:44;3.70;99.90
35613;DHT22;22054;51.646;7.078;2022-12-07T03:53:18;3.80;99.90
35613;DHT22;22054;51.646;7.078;2022-12-07T03:55:48;3.80;99.90
35613;DHT22;22054;51.646;7.078;2022-12-07T03:58:18;3.80;99.90
35613;DHT22;22054;51.646;7.078;2022-12-07T04:00:47;3.90;99.90
35613;DHT22;22054;51.646;7.078;2022-12-07T04:03:14;3.90;99.90
35613;DHT22;22054;51.646;7.078;2022-12-07T04:05:40;3.90;99.90
35613;DHT22;22054;51.646;7.078;2022-12-07T04:08:07;3.90;99.90
35613;DHT22;22054;51.646;7.078;2022-12-07T04:10:33;4.00;99.90
35613;DHT22;22054;51.646;7.078;2022-12-07T04:13:02;4.00;99.90
35613;DHT22;22054;51.646;7.078;2022-12-07T04:15:28;3.90;99.90
35613;DHT22;22054;51.646;7.078;2022-12-07T04:17:53;4.00;99.90
35613;DHT22;22054;51.646;7.078;2022-12-07T04:20:20;3.90;99.90
35613;DHT22;22054;51.646;7.078;2022-12-07T04:22:46;3.80;99.90
35613;DHT22;22054;51.646;7.078;2022-12-07T04:25:12;3.80;99.90
35613;DHT22;22054;51.646;7.078;2022-12-07T04:27:38;3.80;99.90
35613;DHT22;22054;51.646;7.078;2022-12-07T04:30:04;3.90;99.90
35613;DHT22;22054;51.646;7.078;2022-12-07T04:32:30;4.10;99.90
35613;DHT22;22054;51.646;7.078;2022-12-07T04:34:56;4.10;99.90
35613;DHT22;22054;51.646;7.078;2022-12-07T04:37:22;3.90;99.90
35613;DHT22;22054;51.646;7.078;2022-12-07T04:39:48;4.00;99.90
35613;DHT22;22054;51.646;7.078;2022-12-07T04:42:14;4.10;99.90
35613;DHT22;22054;51.646;7.078;2022-12-07T04:44:40;4.20;99.90
35613;DHT22;22054;51.646;7.078;2022-12-07T04:47:08;4.20;99.90
35613;DHT22;22054;51.646;7.078;2022-12-07T04:49:34;4.20;99.90
35613;DHT22;22054;51.646;7.078;2022-12-07T04:51:59;4.10;99.90
35613;DHT22;22054;51.646;7.078;2022-12-07T04:54:25;4.10;99.90
35613;DHT22;22054;51.646;7.078;2022-12-07T04:56:51;4.10;99.90
35613;DHT22;22054;51.646;7.078;2022-12-07T04:59:17;4.20;99.90
35613;DHT22;22054;51.646;7.078;2022-12-07T05:01:45;4.10;99.90
35613;DHT22;22054;51.646;7.078;2022-12-07T05:04:11;4.10;99.90
35613;DHT22;22054;51.646;7.078;2022-12-07T05:06:36;4.10;99.90
35613;DHT22;22054;51.646;7.078;2022-12-07T05:09:03;4.10;99.90
35613;DHT22;22054;51.646;7.078;2022-12-07T05:11:29;4.00;99.90
35613;DHT22;22054;51.646;7.078;2022-12-07T05:14:15;4.00;99.90
35613;DHT22;22054;51.646;7.078;2022-12-07T05:16:44;4.00;99.90
35613;DHT22;22054;51.646;7.078;2022-12-07T05:19:14;4.10;99.90
35613;DHT22;22054;51.646;7.078;2022-12-07T05:21:40;4.20;99.90
35613;DHT22;22054;51.646;7.078;2022-12-07T05:24:10;4.10;99.90
35613;DHT22;22054;51.646;7.078;2022-12-07T05:26:37;4.10;99.90
35613;DHT22;22054;51.646;7.078;2022-12-07T05:29:04;4.10;99.90
35613;DHT22;22054;51.646;7.078;2022-12-07T05:31:30;4.10;99.90
35613;DHT22;22054;51.646;7.078;2022-12-07T05:33:56;4.20;99.90
35613;DHT22;22054;51.646;7.078;2022-12-07T05:36:22;4.20;99.90
35613;DHT22;22054;51.646;7.078;2022-12-07T05:38:48;4.20;99.90
35613;DHT22;22054;51.646;7.078;2022-12-07T05:41:16;4.10;99.90
35613;DHT22;22054;51.646;7.078;2022-12-07T05:44:02;4.10;99.90
35613;DHT22;22054;51.646;7.078;2022-12-07T05:46:28;4.10;99.90
35613;DHT22;22054;51.646;7.078;2022-12-07T05:48:57;4.10;99.90
35613;DHT22;22054;51.646;7.078;2022-12-07T05:51:23;4.10;99.90
35613;DHT22;22054;51.646;7.078;2022-12-07T05:53:48;4.10;99.90
35613;DHT22;22054;51.646;7.078;2022-12-07T05:56:17;4.10;99.90
35613;DHT22;22054;51.646;7.078;2022-12-07T05:58:43;4.10;99.90
35613;DHT22;22054;51.646;7.078;2022-12-07T06:01:27;4.20;99.90
35613;DHT22;22054;51.646;7.078;2022-12-07T06:03:53;4.20;99.90
35613;DHT22;22054;51.646;7.078;2022-12-07T06:06:18;4.20;99.90
35613;DHT22;22054;51.646;7.078;2022-12-07T06:08:46;4.10;99.90
35613;DHT22;22054;51.646;7.078;2022-12-07T06:11:12;4.00;99.90
35613;DHT22;22054;51.646;7.078;2022-12-07T06:13:57;3.90;99.90
35613;DHT22;22054;51.646;7.078;2022-12-07T06:16:23;4.00;99.90
35613;DHT22;22054;51.646;7.078;2022-12-07T06:19:03;4.00;99.90
35613;DHT22;22054;51.646;7.078;2022-12-07T06:21:29;4.10;99.90
35613;DHT22;22054;51.646;7.078;2022-12-07T06:23:55;4.00;99.90
35613;DHT22;22054;51.646;7.078;2022-12-07T06:26:21;4.20;99.90
35613;DHT22;22054;51.646;7.078;2022-12-07T06:28:47;4.00;99.90
35613;DHT22;22054;51.646;7.078;2022-12-07T06:31:13;3.90;99.90
35613;DHT22;22054;51.646;7.078;2022-12-07T06:34:01;3.90;99.90
35613;DHT22;22054;51.646;7.078;2022-12-07T06:40:06;3.80;99.90
35613;DHT22;22054;51.646;7.078;2022-12-07T06:42:35;3.70;99.90
35613;DHT22;22054;51.646;7.078;2022-12-07T06:45:01;3.70;99.90
35613;DHT22;22054;51.646;7.078;2022-12-07T06:47:27;3.80;99.90
35613;DHT22;22054;51.646;7.078;2022-12-07T06:49:52;3.60;99.90
35613;DHT22;22054;51.646;7.078;2022-12-07T06:52:18;3.50;99.90
35613;DHT22;22054;51.646;7.078;2022-12-07T06:54:44;3.70;99.90
35613;DHT22;22054;51.646;7.078;2022-12-07T06:57:10;3.50;99.90
35613;DHT22;22054;51.646;7.078;2022-12-07T06:59:36;3.50;99.90
35613;DHT22;22054;51.646;7.078;2022-12-07T07:02:01;3.40;99.90
35613;DHT22;22054;51.646;7.078;2022-12-07T07:04:27;3.40;99.90
35613;DHT22;22054;51.646;7.078;2022-12-07T07:06:53;3.40;99.90
35613;DHT22;22054;51.646;7.078;2022-12-07T07:09:19;3.40;99.90
35613;DHT22;22054;51.646;7.078;2022-12-07T07:11:44;3.50;99.90
35613;DHT22;22054;51.646;7.078;2022-12-07T07:14:13;3.50;99.90
35613;DHT22;22054;51.646;7.078;2022-12-07T07:16:44;3.50;99.90
35613;DHT22;22054;51.646;7.078;2022-12-07T07:19:10;3.50;99.90
35613;DHT22;22054;51.646;7.078;2022-12-07T07:21:36;3.70;99.90
35613;DHT22;22054;51.646;7.078;2022-12-07T07:24:02;3.30;99.90
35613;DHT22;22054;51.646;7.078;2022-12-07T07:26:29;3.40;99.90
35613;DHT22;22054;51.646;7.078;2022-12-07T07:29:17;3.30;99.90
35613;DHT22;22054;51.646;7.078;2022-12-07T07:31:50;3.40;99.90
35613;DHT22;22054;51.646;7.078;2022-12-07T07:34:16;3.20;99.90
35613;DHT22;22054;51.646;7.078;2022-12-07T07:36:50;3.40;99.90
35613;DHT22;22054;51.646;7.078;2022-12-07T07:39:16;3.20;99.90
35613;DHT22;22054;51.646;7.078;2022-12-07T07:41:42;3.20;99.90
35613;DHT22;22054;51.646;7.078;2022-12-07T07:44:08;3.20;99.90
35613;DHT22;22054;51.646;7.078;2022-12-07T07:47:10;3.30;99.90
35613;DHT22;22054;51.646;7.078;2022-12-07T07:52:42;3.20;99.90
35613;DHT22;22054;51.646;7.078;2022-12-07T07:55:08;3.40;99.90
35613;DHT22;22054;51.646;7.078;2022-12-07T07:57:35;3.30;99.90
35613;DHT22;22054;51.646;7.078;2022-12-07T08:00:08;3.40;99.90
35613;DHT22;22054;51.646;7.078;2022-12-07T08:02:39;3.50;99.90
35613;DHT22;22054;51.646;7.078;2022-12-07T08:05:06;3.40;99.90
35613;DHT22;22054;51.646;7.078;2022-12-07T08:07:32;3.50;99.90
35613;DHT22;22054;51.646;7.078;2022-12-07T08:09:58;3.50;99.90
35613;DHT22;22054;51.646;7.078;2022-12-07T08:12:23;3.50;99.90
35613;DHT22;22054;51.646;7.078;2022-12-07T08:14:49;3.60;99.90
35613;DHT22;22054;51.646;7.078;2022-12-07T08:17:15;3.70;99.90
35613;DHT22;22054;51.646;7.078;2022-12-07T08:19:40;3.80;99.90
35613;DHT22;22054;51.646;7.078;2022-12-07T08:22:06;3.90;99.90
35613;DHT22;22054;51.646;7.078;2022-12-07T08:24:36;4.00;99.90
35613;DHT22;22054;51.646;7.078;2022-12-07T08:27:02;4.10;99.90
35613;DHT22;22054;51.646;7.078;2022-12-07T08:29:28;4.10;99.90
35613;DHT22;22054;51.646;7.078;2022-12-07T08:31:55;4.10;99.90
35613;DHT22;22054;51.646;7.078;2022-12-07T08:34:21;4.20;99.90
35613;DHT22;22054;51.646;7.078;2022-12-07T08:36:47;4.20;99.90
35613;DHT22;22054;51.646;7.078;2022-12-07T08:39:13;4.20;99.90
35613;DHT22;22054;51.646;7.078;2022-12-07T08:41:39;4.30;99.90
35613;DHT22;22054;51.646;7.078;2022-12-07T08:44:05;4.40;99.90
35613;DHT22;22054;51.646;7.078;2022-12-07T08:46:50;4.50;99.90
35613;DHT22;22054;51.646;7.078;2022-12-07T08:49:37;4.60;99.90
35613;DHT22;22054;51.646;7.078;2022-12-07T08:52:05;4.60;99.90
35613;DHT22;22054;51.646;7.078;2022-12-07T08:54:33;4.70;99.90
35613;DHT22;22054;51.646;7.078;2022-12-07T08:57:01;4.70;99.90
35613;DHT22;22054;51.646;7.078;2022-12-07T08:59:27;4.80;99.90
35613;DHT22;22054;51.646;7.078;2022-12-07T09:01:54;4.80;99.90
35613;DHT22;22054;51.646;7.078;2022-12-07T09:04:19;4.90;99.90
35613;DHT22;22054;51.646;7.078;2022-12-07T09:06:46;5.00;99.90
35613;DHT22;22054;51.646;7.078;2022-12-07T09:09:16;5.00;99.90
35613;DHT22;22054;51.646;7.078;2022-12-07T09:11:42;5.00;99.90
35613;DHT22;22054;51.646;7.078;2022-12-07T09:14:08;5.00;99.90
35613;DHT22;22054;51.646;7.078;2022-12-07T09:16:34;5.00;99.90
35613;DHT22;22054;51.646;7.078;2022-12-07T09:19:00;5.00;99.90
35613;DHT22;22054;51.646;7.078;2022-12-07T09:21:26;4.90;99.90
35613;DHT22;22054;51.646;7.078;2022-12-07T09:23:52;4.90;99.90
35613;DHT22;22054;51.646;7.078;2022-12-07T09:26:17;5.00;99.90
35613;DHT22;22054;51.646;7.078;2022-12-07T09:28:43;5.00;99.90
35613;DHT22;22054;51.646;7.078;2022-12-07T09:31:09;5.10;99.90
35613;DHT22;22054;51.646;7.078;2022-12-07T09:33:35;5.20;99.90
35613;DHT22;22054;51.646;7.078;2022-12-07T09:36:01;5.30;99.90
35613;DHT22;22054;51.646;7.078;2022-12-07T09:38:30;5.40;99.90
35613;DHT22;22054;51.646;7.078;2022-12-07T09:40:56;5.60;99.90
35613;DHT22;22054;51.646;7.078;2022-12-07T09:43:24;5.60;99.90
35613;DHT22;22054;51.646;7.078;2022-12-07T09:45:52;5.70;99.90
35613;DHT22;22054;51.646;7.078;2022-12-07T09:48:30;5.70;99.90
35613;DHT22;22054;51.646;7.078;2022-12-07T09:51:00;5.70;99.90
35613;DHT22;22054;51.646;7.078;2022-12-07T09:53:37;5.60;99.90
35613;DHT22;22054;51.646;7.078;2022-12-07T09:56:03;5.50;99.90
35613;DHT22;22054;51.646;7.078;2022-12-07T09:58:30;5.60;99.90
35613;DHT22;22054;51.646;7.078;2022-12-07T10:01:11;5.60;99.90
35613;DHT22;22054;51.646;7.078;2022-12-07T10:03:50;5.60;99.90
35613;DHT22;22054;51.646;7.078;2022-12-07T10:06:18;5.80;99.90
35613;DHT22;22054;51.646;7.078;2022-12-07T10:08:44;6.40;99.90
35613;DHT22;22054;51.646;7.078;2022-12-07T10:11:10;7.10;99.90
35613;DHT22;22054;51.646;7.078;2022-12-07T10:13:49;7.90;99.60
35613;DHT22;22054;51.646;7.078;2022-12-07T10:18:51;9.00;13.70
35613;DHT22;22054;51.646;7.078;2022-12-07T10:21:19;8.80;3.80
35613;DHT22;22054;51.646;7.078;2022-12-07T10:24:13;8.10;19.00
35613;DHT22;22054;51.646;7.078;2022-12-07T10:29:19;7.30;41.00
35613;DHT22;22054;51.646;7.078;2022-12-07T10:32:34;7.10;56.30
35613;DHT22;22054;51.646;7.078;2022-12-07T10:34:41;7.00;89.40
35613;DHT22;22054;51.646;7.078;2022-12-07T10:42:20;6.90;83.00
35613;DHT22;22054;51.646;7.078;2022-12-07T10:45:12;6.80;87.50
35613;DHT22;22054;51.646;7.078;2022-12-07T10:47:47;6.70;98.60
35613;DHT22;22054;51.646;7.078;2022-12-07T10:51:03;6.60;99.90
35613;DHT22;22054;51.646;7.078;2022-12-07T11:12:13;7.40;22.50
35613;DHT22;22054;51.646;7.078;2022-12-07T11:14:58;7.10;37.70
35613;DHT22;22054;51.646;7.078;2022-12-07T11:26:52;8.60;1.00
35613;DHT22;22054;51.646;7.078;2022-12-07T11:38:33;7.60;13.90
35613;DHT22;22054;51.646;7.078;2022-12-07T11:41:05;7.30;27.60
35613;DHT22;22054;51.646;7.078;2022-12-07T11:47:10;7.30;55.60
35613;DHT22;22054;51.646;7.078;2022-12-07T11:49:47;7.30;54.10
35613;DHT22;22054;51.646;7.078;2022-12-07T11:52:43;7.20;66.60
35613;DHT22;22054;51.646;7.078;2022-12-07T11:55:39;7.40;70.80
35613;DHT22;22054;51.646;7.078;2022-12-07T12:06:40;7.90;1.00
35613;DHT22;22054;51.646;7.078;2022-12-07T12:18:25;8.60;1.00
35613;DHT22;22054;51.646;7.078;2022-12-07T12:21:06;8.60;1.00
35613;DHT22;22054;51.646;7.078;2022-12-07T12:23:43;8.50;1.00
35613;DHT22;22054;51.646;7.078;2022-12-07T12:26:24;8.30;1.00
35613;DHT22;22054;51.646;7.078;2022-12-07T12:29:05;8.20;1.00
35613;DHT22;22054;51.646;7.078;2022-12-07T12:31:39;8.10;1.00
35613;DHT22;22054;51.646;7.078;2022-12-07T12:34:57;8.10;1.00
35613;DHT22;22054;51.646;7.078;2022-12-07T12:42:48;8.30;1.00
35613;DHT22;22054;51.646;7.078;2022-12-07T12:45:24;8.00;1.00
35613;DHT22;22054;51.646;7.078;2022-12-07T12:50:24;7.80;1.00
35613;DHT22;22054;51.646;7.078;2022-12-07T12:53:16;7.60;1.00
35613;DHT22;22054;51.646;7.078;2022-12-07T12:55:50;7.40;1.00
35613;DHT22;22054;51.646;7.078;2022-12-07T12:58:44;7.20;1.00
35613;DHT22;22054;51.646;7.078;2022-12-07T13:01:40;7.20;13.10
35613;DHT22;22054;51.646;7.078;2022-12-07T13:06:51;7.10;44.30
35613;DHT22;22054;51.646;7.078;2022-12-07T13:09:32;7.00;44.60
35613;DHT22;22054;51.646;7.078;2022-12-07T13:12:05;7.00;35.10
35613;DHT22;22054;51.646;7.078;2022-12-07T13:14:42;6.90;51.80
35613;DHT22;22054;51.646;7.078;2022-12-07T13:20:00;6.60;58.50
35613;DHT22;22054;51.646;7.078;2022-12-07T13:28:22;6.60;88.20
35613;DHT22;22054;51.646;7.078;2022-12-07T13:33:43;6.80;96.50
35613;DHT22;22054;51.646;7.078;2022-12-07T13:36:25;6.90;78.80
35613;DHT22;22054;51.646;7.078;2022-12-07T13:41:42;6.90;37.80
35613;DHT22;22054;51.646;7.078;2022-12-07T13:44:13;6.90;53.30
35613;DHT22;22054;51.646;7.078;2022-12-07T13:46:52;6.90;44.40
35613;DHT22;22054;51.646;7.078;2022-12-07T13:49:24;7.00;55.50
35613;DHT22;22054;51.646;7.078;2022-12-07T13:51:53;7.80;1.00
35613;DHT22;22054;51.646;7.078;2022-12-07T13:54:20;8.90;1.00
35613;DHT22;22054;51.646;7.078;2022-12-07T13:56:52;9.60;99.90
35613;DHT22;22054;51.646;7.078;2022-12-07T13:59:24;9.50;1.00
35613;DHT22;22054;51.646;7.078;2022-12-07T14:01:51;9.60;99.90
35613;DHT22;22054;51.646;7.078;2022-12-07T14:04:29;9.60;1.00
35613;DHT22;22054;51.646;7.078;2022-12-07T14:06:57;9.80;1.00
35613;DHT22;22054;51.646;7.078;2022-12-07T14:09:25;10.40;1.00
35613;DHT22;22054;51.646;7.078;2022-12-07T14:11:53;10.90;1.00
35613;DHT22;22054;51.646;7.078;2022-12-07T14:14:24;11.40;1.00
35613;DHT22;22054;51.646;7.078;2022-12-07T14:17:20;11.30;99.90
35613;DHT22;22054;51.646;7.078;2022-12-07T14:20:00;11.40;99.90
35613;DHT22;22054;51.646;7.078;2022-12-07T14:22:37;11.30;1.00
35613;DHT22;22054;51.646;7.078;2022-12-07T14:27:38;10.90;1.00
35613;DHT22;22054;51.646;7.078;2022-12-07T14:30:05;10.50;1.00
35613;DHT22;22054;51.646;7.078;2022-12-07T14:32:34;10.10;99.90
35613;DHT22;22054;51.646;7.078;2022-12-07T14:35:11;9.90;1.00
35613;DHT22;22054;51.646;7.078;2022-12-07T14:37:39;9.40;1.00
35613;DHT22;22054;51.646;7.078;2022-12-07T14:40:07;9.00;99.90
35613;DHT22;22054;51.646;7.078;2022-12-07T14:42:34;8.20;1.00
35613;DHT22;22054;51.646;7.078;2022-12-07T14:45:00;7.70;1.00
35613;DHT22;22054;51.646;7.078;2022-12-07T14:47:26;7.30;1.00
35613;DHT22;22054;51.646;7.078;2022-12-07T14:49:52;7.00;1.00
35613;DHT22;22054;51.646;7.078;2022-12-07T14:52:29;6.70;1.00
35613;DHT22;22054;51.646;7.078;2022-12-07T14:54:55;6.40;1.00
35613;DHT22;22054;51.646;7.078;2022-12-07T14:57:24;6.40;1.00
35613;DHT22;22054;51.646;7.078;2022-12-07T14:59:54;6.20;5.50
35613;DHT22;22054;51.646;7.078;2022-12-07T15:02:20;6.10;26.40
35613;DHT22;22054;51.646;7.078;2022-12-07T15:04:46;6.00;34.00
35613;DHT22;22054;51.646;7.078;2022-12-07T15:07:23;5.90;46.10
35613;DHT22;22054;51.646;7.078;2022-12-07T15:09:50;5.80;59.00
35613;DHT22;22054;51.646;7.078;2022-12-07T15:12:16;5.80;67.60
35613;DHT22;22054;51.646;7.078;2022-12-07T15:14:42;5.70;57.00
35613;DHT22;22054;51.646;7.078;2022-12-07T15:17:10;5.60;87.00
35613;DHT22;22054;51.646;7.078;2022-12-07T15:19:37;5.70;96.30
35613;DHT22;22054;51.646;7.078;2022-12-07T15:22:03;5.60;82.70
35613;DHT22;22054;51.646;7.078;2022-12-07T15:24:29;5.70;92.70
35613;DHT22;22054;51.646;7.078;2022-12-07T15:26:55;5.60;94.70
35613;DHT22;22054;51.646;7.078;2022-12-07T15:29:21;5.50;98.30
35613;DHT22;22054;51.646;7.078;2022-12-07T15:31:49;5.50;99.90
35613;DHT22;22054;51.646;7.078;2022-12-07T15:34:15;5.50;99.90
35613;DHT22;22054;51.646;7.078;2022-12-07T15:36:41;5.50;99.90
35613;DHT22;22054;51.646;7.078;2022-12-07T15:39:06;5.40;99.90
35613;DHT22;22054;51.646;7.078;2022-12-07T15:41:35;5.40;99.90
35613;DHT22;22054;51.646;7.078;2022-12-07T15:44:00;5.30;99.90
35613;DHT22;22054;51.646;7.078;2022-12-07T15:46:45;5.30;99.90
35613;DHT22;22054;51.646;7.078;2022-12-07T15:49:17;5.30;99.90
35613;DHT22;22054;51.646;7.078;2022-12-07T15:51:44;5.30;99.90
35613;DHT22;22054;51.646;7.078;2022-12-07T15:54:22;5.30;99.90
35613;DHT22;22054;51.646;7.078;2022-12-07T15:56:49;5.30;99.90
35613;DHT22;22054;51.646;7.078;2022-12-07T15:59:16;5.30;99.90
35613;DHT22;22054;51.646;7.078;2022-12-07T16:01:42;5.60;99.90
35613;DHT22;22054;51.646;7.078;2022-12-07T16:04:07;5.40;99.90
35613;DHT22;22054;51.646;7.078;2022-12-07T16:06:33;5.40;99.90
35613;DHT22;22054;51.646;7.078;2022-12-07T16:08:59;5.50;99.90
35613;DHT22;22054;51.646;7.078;2022-12-07T16:11:25;5.50;99.90
35613;DHT22;22054;51.646;7.078;2022-12-07T16:13:51;5.50;99.90
35613;DHT22;22054;51.646;7.078;2022-12-07T16:16:18;5.50;99.90
35613;DHT22;22054;51.646;7.078;2022-12-07T16:18:46;5.50;99.90
35613;DHT22;22054;51.646;7.078;2022-12-07T16:21:13;5.50;99.90
35613;DHT22;22054;51.646;7.078;2022-12-07T16:23:39;5.50;99.90
35613;DHT22;22054;51.646;7.078;2022-12-07T16:26:11;5.70;99.90
35613;DHT22;22054;51.646;7.078;2022-12-07T16:28:38;5.50;99.90
35613;DHT22;22054;51.646;7.078;2022-12-07T16:31:10;5.50;99.90
35613;DHT22;22054;51.646;7.078;2022-12-07T16:33:38;5.50;99.90
35613;DHT22;22054;51.646;7.078;2022-12-07T16:36:06;5.50;99.90
35613;DHT22;22054;51.646;7.078;2022-12-07T16:38:33;5.40;99.90
35613;DHT22;22054;51.646;7.078;2022-12-07T16:41:00;5.50;99.90
35613;DHT22;22054;51.646;7.078;2022-12-07T16:43:26;5.40;99.90
35613;DHT22;22054;51.646;7.078;2022-12-07T16:45:52;5.40;99.90
35613;DHT22;22054;51.646;7.078;2022-12-07T16:48:23;5.40;99.90
35613;DHT22;22054;51.646;7.078;2022-12-07T16:50:49;5.50;99.90
35613;DHT22;22054;51.646;7.078;2022-12-07T16:53:15;5.40;99.90
35613;DHT22;22054;51.646;7.078;2022-12-07T16:55:43;5.30;99.90
35613;DHT22;22054;51.646;7.078;2022-12-07T16:58:11;5.20;99.90
35613;DHT22;22054;51.646;7.078;2022-12-07T17:00:38;5.20;99.90
35613;DHT22;22054;51.646;7.078;2022-12-07T17:03:04;5.30;99.90
35613;DHT22;22054;51.646;7.078;2022-12-07T17:05:30;5.30;99.90
35613;DHT22;22054;51.646;7.078;2022-12-07T17:07:57;5.40;99.90
35613;DHT22;22054;51.646;7.078;2022-12-07T17:10:24;5.40;99.90
35613;DHT22;22054;51.646;7.078;2022-12-07T17:12:53;5.30;99.90
35613;DHT22;22054;51.646;7.078;2022-12-07T17:15:18;5.20;99.90
35613;DHT22;22054;51.646;7.078;2022-12-07T17:17:52;5.20;99.90
35613;DHT22;22054;51.646;7.078;2022-12-07T17:20:20;5.20;99.90
35613;DHT22;22054;51.646;7.078;2022-12-07T17:22:46;5.10;99.90
35613;DHT22;22054;51.646;7.078;2022-12-07T17:25:13;5.10;99.90
35613;DHT22;22054;51.646;7.078;2022-12-07T17:27:39;5.10;99.90
35613;DHT22;22054;51.646;7.078;2022-12-07T17:30:06;5.00;99.90
35613;DHT22;22054;51.646;7.078;2022-12-07T17:32:33;5.00;99.90
35613;DHT22;22054;51.646;7.078;2022-12-07T17:34:59;4.90;99.90
35613;DHT22;22054;51.646;7.078;2022-12-07T17:37:25;5.10;99.90
35613;DHT22;22054;51.646;7.078;2022-12-07T17:39:52;4.90;99.90
35613;DHT22;22054;51.646;7.078;2022-12-07T17:42:21;4.80;99.90
35613;DHT22;22054;51.646;7.078;2022-12-07T17:45:03;4.80;99.90
35613;DHT22;22054;51.646;7.078;2022-12-07T17:47:29;4.80;99.90
35613;DHT22;22054;51.646;7.078;2022-12-07T17:49:58;4.80;99.90
35613;DHT22;22054;51.646;7.078;2022-12-07T17:52:23;4.80;99.90
35613;DHT22;22054;51.646;7.078;2022-12-07T17:55:08;4.80;99.90
35613;DHT22;22054;51.646;7.078;2022-12-07T17:57:33;4.90;99.90
35613;DHT22;22054;51.646;7.078;2022-12-07T17:59:59;4.80;99.90
35613;DHT22;22054;51.646;7.078;2022-12-07T18:02:25;4.80;99.90
35613;DHT22;22054;51.646;7.078;2022-12-07T18:04:51;4.80;99.90
35613;DHT22;22054;51.646;7.078;2022-12-07T18:07:17;4.80;99.90
35613;DHT22;22054;51.646;7.078;2022-12-07T18:09:43;4.90;99.90
35613;DHT22;22054;51.646;7.078;2022-12-07T18:12:10;4.90;99.90
35613;DHT22;22054;51.646;7.078;2022-12-07T18:14:36;5.00;99.90
35613;DHT22;22054;51.646;7.078;2022-12-07T18:17:02;5.00;99.90
35613;DHT22;22054;51.646;7.078;2022-12-07T18:19:28;4.90;99.90
35613;DHT22;22054;51.646;7.078;2022-12-07T18:21:53;4.90;99.90
35613;DHT22;22054;51.646;7.078;2022-12-07T18:24:22;5.00;99.90